createdAt,value
2023-04-18T00:01:18.709Z,96566.50
2023-04-18T00:03:48.406Z,96565.28
2023-04-18T00:06:16.782Z,96561.38
2023-04-18T00:08:44.844Z,96570.59
2023-04-18T00:11:12.975Z,96563.84
2023-04-18T00:13:41.592Z,96561.19
2023-04-18T00:16:10.016Z,96571.19
2023-04-18T00:18:39.945Z,96562.41
2023-04-18T00:21:09.702Z,96565.88
2023-04-18T00:23:38.619Z,96566.91
2023-04-18T00:26:06.821Z,96562.41
2023-04-18T00:28:34.887Z,96564.03
2023-04-18T00:31:03.042Z,96560.38
2023-04-18T00:33:33.381Z,96555.06
2023-04-18T00:36:01.439Z,96557.09
2023-04-18T00:38:30.985Z,96548.56
2023-04-18T00:40:59.084Z,96550.38
2023-04-18T00:43:27.144Z,96545.09
2023-04-18T00:45:57.076Z,96545.28
2023-04-18T00:48:26.064Z,96544.88
2023-04-18T00:50:55.356Z,96544.88
2023-04-18T00:53:23.521Z,96545.47
2023-04-18T00:55:53.018Z,96539.34
2023-04-18T00:58:21.460Z,96545.09
2023-04-18T01:00:49.912Z,96549.38
2023-04-18T01:03:18.423Z,96546.03
2023-04-18T01:05:47.646Z,96545.03
2023-04-18T01:08:15.802Z,96539.16
2023-04-18T01:10:43.936Z,96541.19
2023-04-18T01:13:14.413Z,96540.19
2023-04-18T01:15:43.482Z,96541.00
2023-04-18T01:18:11.881Z,96538.75
2023-04-18T01:20:42.515Z,96539.56
2023-04-18T01:23:11.422Z,96539.34
2023-04-18T01:25:41.046Z,96541.19
2023-04-18T01:28:09.600Z,96548.56
2023-04-18T01:30:37.676Z,96548.94
2023-04-18T01:33:06.039Z,96543.63
2023-04-18T01:35:34.196Z,96547.91
2023-04-18T01:38:02.364Z,96545.47
2023-04-18T01:40:31.397Z,96552.41
2023-04-18T01:43:02.579Z,96550.78
2023-04-18T01:45:30.658Z,96549.75
2023-04-18T01:47:58.754Z,96545.25
2023-04-18T01:50:26.933Z,96555.63
2023-04-18T01:52:55.397Z,96541.13
2023-04-18T01:55:23.477Z,96544.81
2023-04-18T01:57:51.886Z,96533.41
2023-04-18T02:00:23.368Z,96535.41
2023-04-18T02:02:52.000Z,96536.44
2023-04-18T02:05:22.334Z,96538.28
2023-04-18T02:07:50.842Z,96538.06
2023-04-18T02:10:19.022Z,96532.97
2023-04-18T02:12:47.159Z,96538.28
2023-04-18T02:15:15.749Z,96535.19
2023-04-18T02:17:45.688Z,96537.59
2023-04-18T02:20:14.734Z,96535.19
2023-04-18T02:22:42.979Z,96534.16
2023-04-18T02:25:11.704Z,96539.47
2023-04-18T02:27:40.402Z,96539.22
2023-04-18T02:30:09.499Z,96541.06
2023-04-18T02:32:37.741Z,96544.78
2023-04-18T02:35:09.840Z,96539.84
2023-04-18T02:37:38.016Z,96538.22
2023-04-18T02:40:07.354Z,96539.03
2023-04-18T02:42:35.497Z,96543.50
2023-04-18T02:45:03.814Z,96540.50
2023-04-18T02:47:40.529Z,96538.41
2023-04-18T02:50:20.096Z,96543.72
2023-04-18T02:52:48.397Z,96546.84
2023-04-18T02:55:18.893Z,96552.88
2023-04-18T02:57:47.647Z,96545.53
2023-04-18T03:00:33.917Z,96544.72
2023-04-18T03:03:20.731Z,96541.63
2023-04-18T03:06:01.457Z,96549.59
2023-04-18T03:08:31.340Z,96545.88
2023-04-18T03:10:59.727Z,96545.66
2023-04-18T03:13:30.635Z,96549.75
2023-04-18T03:15:59.535Z,96550.97
2023-04-18T03:18:29.061Z,96544.84
2023-04-18T03:21:01.371Z,96544.66
2023-04-18T03:23:31.339Z,96544.28
2023-04-18T03:26:00.974Z,96549.41
2023-04-18T03:28:32.681Z,96545.53
2023-04-18T03:31:01.589Z,96544.28
2023-04-18T03:33:30.317Z,96547.72
2023-04-18T03:36:09.735Z,96548.19
2023-04-18T03:38:40.667Z,96548.78
2023-04-18T03:41:09.813Z,96551.66
2023-04-18T03:43:40.166Z,96553.50
2023-04-18T03:46:08.323Z,96558.78
2023-04-18T03:48:37.701Z,96556.94
2023-04-18T03:51:11.785Z,96552.66
2023-04-18T03:53:40.553Z,96558.78
2023-04-18T03:56:09.145Z,96554.31
2023-04-18T03:58:58.749Z,96561.44
2023-04-18T04:01:26.913Z,96561.44
2023-04-18T04:03:55.649Z,96556.94
2023-04-18T04:06:27.420Z,96562.84
2023-04-18T04:08:59.120Z,96562.63
2023-04-18T04:11:29.581Z,96564.47
2023-04-18T04:13:58.136Z,96556.50
2023-04-18T04:16:32.321Z,96552.00
2023-04-18T04:19:01.405Z,96552.00
2023-04-18T04:21:38.359Z,96561.38
2023-04-18T04:24:09.564Z,96563.81
2023-04-18T04:26:42.789Z,96561.38
2023-04-18T04:29:16.916Z,96568.31
2023-04-18T04:31:47.701Z,96563.16
2023-04-18T04:34:22.758Z,96564.78
2023-04-18T04:36:53.994Z,96561.91
2023-04-18T04:39:24.705Z,96569.22
2023-04-18T04:42:05.481Z,96570.03
2023-04-18T04:44:44.522Z,96568.41
2023-04-18T04:47:12.778Z,96574.09
2023-04-18T04:49:41.195Z,96568.22
2023-04-18T04:52:11.272Z,96580.41
2023-04-18T04:54:39.516Z,96576.75
2023-04-18T04:57:10.071Z,96576.81
2023-04-18T04:59:38.224Z,96583.53
2023-04-18T05:02:32.492Z,96578.56
2023-04-18T05:05:01.041Z,96583.88
2023-04-18T05:07:30.537Z,96581.22
2023-04-18T05:09:58.706Z,96583.06
2023-04-18T05:12:26.916Z,96589.78
2023-04-18T05:14:55.041Z,96590.81
2023-04-18T05:17:23.182Z,96588.97
2023-04-18T05:19:51.921Z,96587.94
2023-04-18T05:22:20.063Z,96588.78
2023-04-18T05:24:49.631Z,96591.22
2023-04-18T05:27:18.206Z,96586.72
2023-04-18T05:29:47.644Z,96592.63
2023-04-18T05:32:16.346Z,96591.34
2023-04-18T05:34:44.470Z,96599.56
2023-04-18T05:37:12.578Z,96596.44
2023-04-18T05:39:40.803Z,96600.91
2023-04-18T05:42:10.442Z,96597.22
2023-04-18T05:44:38.676Z,96596.75
2023-04-18T05:47:07.207Z,96600.03
2023-04-18T05:49:35.386Z,96598.56
2023-04-18T05:52:03.530Z,96600.97
2023-04-18T05:54:31.598Z,96601.34
2023-04-18T05:56:59.763Z,96598.28
2023-04-18T05:59:29.904Z,96606.59
2023-04-18T06:01:58.319Z,96601.88
2023-04-18T06:04:26.599Z,96598.78
2023-04-18T06:06:54.791Z,96598.78
2023-04-18T06:09:22.849Z,96597.75
2023-04-18T06:11:51.402Z,96606.75
2023-04-18T06:14:19.559Z,96607.13
2023-04-18T06:16:49.168Z,96602.44
2023-04-18T06:19:17.328Z,96607.94
2023-04-18T06:21:45.519Z,96603.25
2023-04-18T06:24:13.875Z,96616.31
2023-04-18T06:26:42.499Z,96615.88
2023-04-18T06:29:10.638Z,96611.81
2023-04-18T06:31:38.761Z,96610.78
2023-04-18T06:34:08.881Z,96614.84
2023-04-18T06:36:37.004Z,96615.41
2023-04-18T06:39:05.159Z,96626.84
2023-04-18T06:41:33.748Z,96622.00
2023-04-18T06:44:03.348Z,96620.38
2023-04-18T06:46:32.222Z,96624.06
2023-04-18T06:49:00.467Z,96613.81
2023-04-18T06:51:30.102Z,96616.09
2023-04-18T06:53:58.627Z,96614.03
2023-04-18T06:56:26.946Z,96618.88
2023-04-18T06:58:55.038Z,96625.22
2023-04-18T07:01:23.223Z,96629.75
2023-04-18T07:03:51.439Z,96626.63
2023-04-18T07:06:19.636Z,96632.16
2023-04-18T07:08:49.491Z,96633.16
2023-04-18T07:11:18.582Z,96626.22
2023-04-18T07:13:47.438Z,96633.38
2023-04-18T07:16:15.762Z,96630.72
2023-04-18T07:18:44.005Z,96630.13
2023-04-18T07:21:12.525Z,96634.81
2023-04-18T07:23:40.852Z,96633.78
2023-04-18T07:26:11.486Z,96636.25
2023-04-18T07:28:39.584Z,96631.53
2023-04-18T07:31:11.294Z,96638.91
2023-04-18T07:33:39.603Z,96634.00
2023-04-18T07:36:08.794Z,96642.66
2023-04-18T07:38:36.898Z,96637.97
2023-04-18T07:41:05.126Z,96639.78
2023-04-18T07:43:34.648Z,96645.69
2023-04-18T07:46:02.825Z,96643.59
2023-04-18T07:48:31.337Z,96640.94
2023-04-18T07:50:59.528Z,96644.41
2023-04-18T07:53:27.717Z,96646.88
2023-04-18T07:55:56.262Z,96640.13
2023-04-18T07:58:24.479Z,96652.25
2023-04-18T08:00:54.505Z,96651.78
2023-04-18T08:03:22.809Z,96648.56
2023-04-18T08:05:51.997Z,96658.31
2023-04-18T08:08:20.113Z,96655.00
2023-04-18T08:10:48.246Z,96659.34
2023-04-18T08:13:18.008Z,96663.22
2023-04-18T08:15:47.333Z,96668.13
2023-04-18T08:18:16.896Z,96664.72
2023-04-18T08:20:45.069Z,96668.00
2023-04-18T08:23:13.978Z,96663.31
2023-04-18T08:25:42.138Z,96672.47
2023-04-18T08:28:10.933Z,96668.19
2023-04-18T08:30:39.081Z,96669.81
2023-04-18T08:33:07.317Z,96679.63
2023-04-18T08:35:36.988Z,96677.06
2023-04-18T08:38:05.107Z,96678.81
2023-04-18T08:40:33.371Z,96674.78
2023-04-18T08:43:02.203Z,96692.09
2023-04-18T08:45:31.354Z,96689.91
2023-04-18T08:48:01.641Z,96687.59
2023-04-18T08:50:30.140Z,96693.19
2023-04-18T08:53:00.915Z,96694.19
2023-04-18T08:55:29.617Z,96697.03
2023-04-18T08:57:57.967Z,96688.66
2023-04-18T09:00:27.221Z,96685.63
2023-04-18T09:02:57.157Z,96688.41
2023-04-18T09:05:26.996Z,96695.78
2023-04-18T09:07:56.201Z,96693.66
2023-04-18T09:10:33.330Z,96696.69
2023-04-18T09:13:03.292Z,96697.06
2023-04-18T09:15:32.490Z,96691.31
2023-04-18T09:18:02.906Z,96692.50
2023-04-18T09:20:36.021Z,96690.00
2023-04-18T09:23:04.937Z,96694.34
2023-04-18T09:25:36.120Z,96699.47
2023-04-18T09:28:04.692Z,96696.34
2023-04-18T09:30:37.826Z,96685.72
2023-04-18T09:33:07.649Z,96691.31
2023-04-18T09:35:36.033Z,96690.28
2023-04-18T09:38:04.551Z,96690.06
2023-04-18T09:40:34.339Z,96690.50
2023-04-18T09:43:02.504Z,96689.84
2023-04-18T09:45:30.666Z,96688.75
2023-04-18T09:47:58.831Z,96691.84
2023-04-18T09:50:27.434Z,96695.00
2023-04-18T09:52:55.641Z,96688.56
2023-04-18T09:55:23.825Z,96697.97
2023-04-18T09:57:53.360Z,96681.78
2023-04-18T10:00:24.182Z,96688.88
2023-04-18T10:02:55.374Z,96683.50
2023-04-18T10:05:26.540Z,96685.50
2023-04-18T10:07:54.976Z,96687.72
2023-04-18T10:10:23.281Z,96694.41
2023-04-18T10:12:53.928Z,96698.94
2023-04-18T10:15:22.901Z,96696.25
2023-04-18T10:20:28.301Z,96694.88
2023-04-18T10:22:56.804Z,96694.06
2023-04-18T10:25:50.600Z,96696.72
2023-04-18T10:28:21.471Z,96690.13
2023-04-18T10:30:52.248Z,96693.25
2023-04-18T10:33:33.489Z,96692.22
2023-04-18T10:36:14.903Z,96681.78
2023-04-18T10:38:47.756Z,96678.16
2023-04-18T10:41:17.338Z,96689.34
2023-04-18T10:44:19.836Z,96689.03
2023-04-18T10:47:33.968Z,96682.53
2023-04-18T10:50:06.302Z,96693.97
2023-04-18T10:52:37.664Z,96678.63
2023-04-18T10:55:14.766Z,96685.41
2023-04-18T10:57:43.500Z,96692.00
2023-04-18T11:00:15.237Z,96690.72
2023-04-18T11:02:50.226Z,96690.19
2023-04-18T11:05:22.936Z,96701.00
2023-04-18T11:07:51.221Z,96689.91
2023-04-18T11:10:20.363Z,96689.56
2023-04-18T11:12:48.953Z,96692.03
2023-04-18T11:15:21.615Z,96688.13
2023-04-18T11:17:57.117Z,96691.00
2023-04-18T11:20:25.677Z,96689.56
2023-04-18T11:22:54.690Z,96683.03
2023-04-18T11:25:26.106Z,96689.06
2023-04-18T11:27:55.229Z,96693.16
2023-04-18T11:30:24.782Z,96694.28
2023-04-18T11:32:54.244Z,96687.13
2023-04-18T11:35:22.462Z,96689.56
2023-04-18T11:37:51.316Z,96687.81
2023-04-18T11:40:19.834Z,96687.38
2023-04-18T11:42:47.945Z,96695.44
2023-04-18T11:45:16.313Z,96691.13
2023-04-18T11:47:48.114Z,96684.19
2023-04-18T11:50:16.419Z,96688.50
2023-04-18T11:52:44.697Z,96684.38
2023-04-18T11:55:14.609Z,96695.34
2023-04-18T11:57:43.023Z,96690.34
2023-04-18T12:00:12.947Z,96699.56
2023-04-18T12:02:42.141Z,96696.16
2023-04-18T12:05:12.452Z,96698.16
2023-04-18T12:07:41.974Z,96700.38
2023-04-18T12:10:10.939Z,96700.59
2023-04-18T12:12:39.117Z,96699.78
2023-04-18T12:15:09.424Z,96697.94
2023-04-18T12:17:38.078Z,96698.97
2023-04-18T12:20:08.042Z,96699.56
2023-04-18T12:22:42.035Z,96692.84
2023-04-18T12:25:20.325Z,96695.66
2023-04-18T12:27:52.279Z,96699.06
2023-04-18T12:30:22.057Z,96693.66
2023-04-18T12:32:51.097Z,96691.59
2023-04-18T12:35:20.095Z,96694.84
2023-04-18T12:37:49.670Z,96689.78
2023-04-18T12:40:19.012Z,96695.88
2023-04-18T12:42:47.456Z,96703.84
2023-04-18T12:45:16.171Z,96700.16
2023-04-18T12:47:45.320Z,96699.34
2023-04-18T12:50:19.083Z,96693.88
2023-04-18T12:52:47.255Z,96695.81
2023-04-18T12:55:16.825Z,96697.44
2023-04-18T12:57:44.964Z,96698.84
2023-04-18T13:00:14.216Z,96695.72
2023-04-18T13:02:43.621Z,96709.84
2023-04-18T13:05:13.231Z,96700.22
2023-04-18T13:07:42.534Z,96692.75
2023-04-18T13:10:11.700Z,96700.53
2023-04-18T13:12:41.515Z,96704.41
2023-04-18T13:15:10.577Z,96704.88
2023-04-18T13:17:38.845Z,96701.22
2023-04-18T13:20:09.098Z,96702.13
2023-04-18T13:22:37.332Z,96703.31
2023-04-18T13:25:05.820Z,96695.72
2023-04-18T13:27:33.937Z,96702.84
2023-04-18T13:30:03.892Z,96704.13
2023-04-18T13:32:32.467Z,96695.72
2023-04-18T13:35:00.661Z,96692.03
2023-04-18T13:37:28.781Z,96696.81
2023-04-18T13:39:57.416Z,96695.38
2023-04-18T13:42:25.925Z,96689.66
2023-04-18T13:44:54.464Z,96696.81
2023-04-18T13:47:24.003Z,96700.06
2023-04-18T13:49:52.251Z,96690.06
2023-04-18T13:52:20.384Z,96690.69
2023-04-18T13:54:49.331Z,96691.91
2023-04-18T13:57:17.475Z,96683.53
2023-04-18T13:59:45.609Z,96685.16
2023-04-18T14:02:14.013Z,96685.97
2023-04-18T14:04:43.906Z,96682.72
2023-04-18T14:07:12.177Z,96683.31
2023-04-18T14:09:40.683Z,96688.84
2023-04-18T14:12:08.935Z,96685.91
2023-04-18T14:14:37.116Z,96686.31
2023-04-18T14:17:05.229Z,96695.78
2023-04-18T14:19:34.806Z,96695.34
2023-04-18T14:22:04.306Z,96703.69
2023-04-18T14:24:32.393Z,96704.50
2023-04-18T14:27:01.773Z,96698.75
2023-04-18T14:29:29.900Z,96698.97
2023-04-18T14:31:58.120Z,96702.00
2023-04-18T14:34:26.288Z,96701.75
2023-04-18T14:36:54.766Z,96690.09
2023-04-18T14:39:24.769Z,96690.09
2023-04-18T14:41:54.833Z,96694.19
2023-04-18T14:44:22.938Z,96688.78
2023-04-18T14:46:51.096Z,96690.63
2023-04-18T14:49:19.719Z,96684.06
2023-04-18T14:51:47.885Z,96685.69
2023-04-18T14:54:16.009Z,96678.53
2023-04-18T14:56:45.499Z,96688.78
2023-04-18T14:59:16.476Z,96689.59
2023-04-18T15:01:45.094Z,96687.97
2023-04-18T15:04:13.546Z,96686.72
2023-04-18T15:06:42.226Z,96686.94
2023-04-18T15:09:10.333Z,96686.94
2023-04-18T15:11:38.715Z,96689.84
2023-04-18T15:14:08.217Z,96690.88
2023-04-18T15:16:38.122Z,96686.13
2023-04-18T15:19:06.649Z,96689.16
2023-04-18T15:21:34.795Z,96680.59
2023-04-18T15:24:03.278Z,96686.72
2023-04-18T15:26:33.141Z,96689.38
2023-04-18T15:29:02.606Z,96680.38
2023-04-18T15:31:32.603Z,96685.50
2023-04-18T15:34:00.854Z,96686.31
2023-04-18T15:36:28.999Z,96685.69
2023-04-18T15:38:57.112Z,96684.28
2023-04-18T15:41:25.314Z,96683.47
2023-04-18T15:43:54.000Z,96690.41
2023-04-18T15:46:22.393Z,96693.88
2023-04-18T15:48:52.198Z,96693.06
2023-04-18T15:51:20.364Z,96689.84
2023-04-18T15:53:48.482Z,96688.34
2023-04-18T15:56:16.609Z,96690.41
2023-04-18T15:58:45.189Z,96694.47
2023-04-18T16:01:15.916Z,96693.06
2023-04-18T16:03:44.508Z,96703.28
2023-04-18T16:06:15.252Z,96702.03
2023-04-18T16:08:43.377Z,96699.16
2023-04-18T16:11:11.476Z,96699.50
2023-04-18T16:13:39.618Z,96699.28
2023-04-18T16:16:08.346Z,96702.16
2023-04-18T16:18:36.505Z,96702.38
2023-04-18T16:21:04.790Z,96704.81
2023-04-18T16:23:34.304Z,96709.09
2023-04-18T16:26:02.956Z,96703.38
2023-04-18T16:28:31.044Z,96702.75
2023-04-18T16:30:59.264Z,96700.91
2023-04-18T16:33:27.557Z,96696.63
2023-04-18T16:35:57.784Z,96693.75
2023-04-18T16:38:27.371Z,96699.06
2023-04-18T16:40:57.642Z,96690.50
2023-04-18T16:43:26.984Z,96691.31
2023-04-18T16:45:56.509Z,96687.63
2023-04-18T16:48:24.759Z,96685.56
2023-04-18T16:50:52.973Z,96688.44
2023-04-18T16:53:22.282Z,96689.25
2023-04-18T16:55:50.585Z,96689.03
2023-04-18T16:58:20.289Z,96683.50
2023-04-18T17:00:48.416Z,96698.88
2023-04-18T17:03:16.629Z,96698.66
2023-04-18T17:05:44.916Z,96701.31
2023-04-18T17:08:13.000Z,96708.47
2023-04-18T17:10:41.139Z,96703.38
2023-04-18T17:13:09.370Z,96702.13
2023-04-18T17:15:39.310Z,96706.97
2023-04-18T17:18:07.473Z,96702.69
2023-04-18T17:20:36.167Z,96708.22
2023-04-18T17:23:04.289Z,96713.31
2023-04-18T17:25:32.359Z,96706.97
2023-04-18T17:28:02.241Z,96703.38
2023-04-18T17:30:30.492Z,96709.84
2023-04-18T17:33:00.422Z,96702.91
2023-04-18T17:35:28.667Z,96714.50
2023-04-18T17:37:56.881Z,96711.03
2023-04-18T17:40:25.171Z,96708.59
2023-04-18T17:42:53.291Z,96714.94
2023-04-18T17:45:21.552Z,96714.13
2023-04-18T17:47:50.950Z,96713.09
2023-04-18T17:50:20.702Z,96711.25
2023-04-18T17:52:48.959Z,96707.78
2023-04-18T17:55:17.166Z,96714.72
2023-04-18T17:57:45.339Z,96716.78
2023-04-18T18:00:14.698Z,96716.78
2023-04-18T18:02:43.403Z,96721.06
2023-04-18T18:05:13.672Z,96724.56
2023-04-18T18:07:47.467Z,96721.06
2023-04-18T18:10:19.051Z,96721.88
2023-04-18T18:12:47.204Z,96730.47
2023-04-18T18:15:15.699Z,96726.19
2023-04-18T18:17:43.863Z,96730.47
2023-04-18T18:20:12.037Z,96732.91
2023-04-18T18:22:40.153Z,96730.47
2023-04-18T18:25:10.641Z,96733.13
2023-04-18T18:27:38.814Z,96743.97
2023-04-18T18:30:08.431Z,96745.38
2023-04-18T18:32:36.576Z,96752.31
2023-04-18T18:35:06.082Z,96751.88
2023-04-18T18:37:34.231Z,96749.47
2023-04-18T18:40:04.540Z,96751.31
2023-04-18T18:42:34.441Z,96751.06
2023-04-18T18:45:02.549Z,96747.97
2023-04-18T18:47:31.465Z,96749.59
2023-04-18T18:49:59.605Z,96755.94
2023-04-18T18:52:29.803Z,96753.66
2023-04-18T18:54:58.426Z,96750.63
2023-04-18T18:57:26.653Z,96747.75
2023-04-18T18:59:56.153Z,96756.53
2023-04-18T19:02:24.577Z,96755.72
2023-04-18T19:04:52.932Z,96752.84
2023-04-18T19:07:21.112Z,96751.59
2023-04-18T19:09:49.631Z,96747.53
2023-04-18T19:12:17.896Z,96751.34
2023-04-18T19:14:46.900Z,96753.81
2023-04-18T19:17:17.695Z,96755.66
2023-04-18T19:19:46.286Z,96750.53
2023-04-18T19:22:14.415Z,96755.66
2023-04-18T19:24:42.508Z,96754.25
2023-04-18T19:27:10.579Z,96749.72
2023-04-18T19:29:38.703Z,96747.06
2023-04-18T19:32:07.523Z,96753.44
2023-04-18T19:34:37.125Z,96754.25
2023-04-18T19:37:05.544Z,96752.19
2023-04-18T19:39:33.663Z,96758.53
2023-04-18T19:42:03.934Z,96755.88
2023-04-18T19:44:32.478Z,96756.47
2023-04-18T19:47:00.594Z,96754.53
2023-04-18T19:49:28.773Z,96755.22
2023-04-18T19:51:59.673Z,96753.16
2023-04-18T19:54:27.808Z,96743.53
2023-04-18T19:56:56.562Z,96746.00
2023-04-18T19:59:24.677Z,96747.84
2023-04-18T20:01:52.848Z,96749.69
2023-04-18T20:04:22.252Z,96756.41
2023-04-18T20:06:50.539Z,96750.28
2023-04-18T20:09:20.038Z,96748.44
2023-04-18T20:11:48.619Z,96753.28
2023-04-18T20:14:16.734Z,96747.75
2023-04-18T20:16:46.212Z,96756.53
2023-04-18T20:19:14.913Z,96748.78
2023-04-18T20:21:43.305Z,96741.63
2023-04-18T20:24:11.342Z,96751.00
2023-04-18T20:26:40.853Z,96738.75
2023-04-18T20:29:09.117Z,96741.78
2023-04-18T20:31:42.178Z,96748.34
2023-04-18T20:34:11.037Z,96751.34
2023-04-18T20:36:41.655Z,96742.59
2023-04-18T20:39:09.885Z,96738.88
2023-04-18T20:41:38.034Z,96744.78
2023-04-18T20:44:10.068Z,96748.69
2023-04-18T20:46:38.257Z,96744.19
2023-04-18T20:49:06.550Z,96742.34
2023-04-18T20:51:35.794Z,96729.66
2023-04-18T20:54:03.873Z,96730.47
2023-04-18T20:56:32.108Z,96729.66
2023-04-18T20:59:00.657Z,96735.78
2023-04-18T21:01:30.265Z,96748.88
2023-04-18T21:03:58.661Z,96735.34
2023-04-18T21:06:28.429Z,96740.44
2023-04-18T21:08:56.678Z,96734.09
2023-04-18T21:11:24.806Z,96738.59
2023-04-18T21:13:53.276Z,96731.44
2023-04-18T21:16:21.443Z,96725.06
2023-04-18T21:18:50.982Z,96728.53
2023-04-18T21:21:19.156Z,96726.91
2023-04-18T21:23:47.273Z,96718.13
2023-04-18T21:26:15.861Z,96717.06
2023-04-18T21:28:54.255Z,96717.88
2023-04-18T21:31:22.376Z,96720.53
2023-04-18T21:33:54.779Z,96724.84
2023-04-18T21:36:22.986Z,96726.47
2023-04-18T21:38:53.058Z,96726.25
2023-04-18T21:41:21.729Z,96726.25
2023-04-18T21:43:49.861Z,96717.44
2023-04-18T21:46:18.274Z,96719.91
2023-04-18T21:48:47.912Z,96711.31
2023-04-18T21:51:17.930Z,96706.00
2023-04-18T21:53:46.533Z,96715.59
2023-04-18T21:56:15.041Z,96712.13
2023-04-18T21:58:43.132Z,96710.88
2023-04-18T22:01:11.372Z,96711.69
2023-04-18T22:03:39.829Z,96710.88
2023-04-18T22:06:08.155Z,96706.16
2023-04-18T22:08:38.099Z,96705.34
2023-04-18T22:11:06.499Z,96707.19
2023-04-18T22:13:34.669Z,96706.16
2023-04-18T22:16:03.743Z,96702.69
2023-04-18T22:18:33.697Z,96699.75
2023-04-18T22:21:02.429Z,96697.34
2023-04-18T22:23:30.744Z,96696.06
2023-04-18T22:26:00.322Z,96693.66
2023-04-18T22:28:28.969Z,96685.69
2023-04-18T22:30:57.200Z,96681.97
2023-04-18T22:33:25.448Z,96683.59
2023-04-18T22:35:54.247Z,96675.59
2023-04-18T22:38:22.412Z,96672.94
2023-04-18T22:40:50.515Z,96677.81
2023-04-18T22:43:22.812Z,96676.19
2023-04-18T22:45:51.286Z,96677.00
2023-04-18T22:48:19.501Z,96674.34
2023-04-18T22:50:49.768Z,96674.34
2023-04-18T22:53:18.117Z,96679.06
2023-04-18T22:55:46.365Z,96674.56
2023-04-18T22:58:14.594Z,96674.13
2023-04-18T23:00:44.120Z,96672.28
2023-04-18T23:03:12.850Z,96661.03
2023-04-18T23:05:41.437Z,96671.47
2023-04-18T23:08:09.666Z,96673.91
2023-04-18T23:10:37.793Z,96666.97
2023-04-18T23:13:05.899Z,96671.47
2023-04-18T23:15:34.116Z,96673.09
2023-04-18T23:18:04.367Z,96667.19
2023-04-18T23:20:32.477Z,96672.72
2023-04-18T23:23:00.649Z,96663.94
2023-04-18T23:25:29.155Z,96659.66
2023-04-18T23:27:57.273Z,96657.47
2023-04-18T23:30:26.576Z,96655.50
2023-04-18T23:32:55.088Z,96661.63
2023-04-18T23:35:24.769Z,96648.34
2023-04-18T23:37:52.882Z,96655.28
2023-04-18T23:40:21.485Z,96650.19
2023-04-18T23:42:49.957Z,96650.41
2023-04-18T23:45:18.223Z,96651.81
2023-04-18T23:47:46.372Z,96652.03
2023-04-18T23:50:14.561Z,96647.75
2023-04-18T23:52:44.007Z,96645.91
2023-04-18T23:55:12.169Z,96641.38
2023-04-18T23:57:40.735Z,96642.44
